createdAt,value
2022-08-14T00:02:09.187Z,15.32
2022-08-14T00:05:15.064Z,10.75
2022-08-14T00:08:44.762Z,10.40
2022-08-14T00:11:43.549Z,11.20
2022-08-14T00:14:47.121Z,10.65
2022-08-14T00:17:59.346Z,11.00
2022-08-14T00:21:03.114Z,11.23
2022-08-14T00:24:09.654Z,11.98
2022-08-14T00:27:14.473Z,10.20
2022-08-14T00:30:20.813Z,11.27
2022-08-14T00:33:24.211Z,11.07
2022-08-14T00:36:49.790Z,14.07
2022-08-14T00:39:53.434Z,11.05
2022-08-14T00:42:58.187Z,10.70
2022-08-14T00:46:05.284Z,12.70
2022-08-14T00:49:14.777Z,11.02
2022-08-14T00:52:19.144Z,11.38
2022-08-14T00:55:23.337Z,14.48
2022-08-14T00:58:35.185Z,11.95
2022-08-14T01:01:39.852Z,10.73
2022-08-14T01:04:54.408Z,11.00
2022-08-14T01:07:58.628Z,10.02
2022-08-14T01:11:02.717Z,10.25
2022-08-14T01:14:25.699Z,10.13
2022-08-14T01:17:49.823Z,11.60
2022-08-14T01:21:13.263Z,10.70
2022-08-14T01:24:22.995Z,10.15
2022-08-14T01:27:53.479Z,10.43
2022-08-14T01:31:00.083Z,12.95
2022-08-14T01:35:17.492Z,11.00
2022-08-14T01:37:31.482Z,12.30
2022-08-14T01:40:41.929Z,12.98
2022-08-14T01:43:56.714Z,11.55
2022-08-14T01:47:02.040Z,12.95
2022-08-14T01:50:11.368Z,12.60
2022-08-14T01:53:17.850Z,14.35
2022-08-14T01:56:37.168Z,11.55
2022-08-14T01:59:44.676Z,11.70
2022-08-14T02:02:48.226Z,12.73
2022-08-14T02:06:03.906Z,12.80
2022-08-14T02:09:23.226Z,12.63
2022-08-14T02:12:31.053Z,12.13
2022-08-14T02:15:35.437Z,13.07
2022-08-14T02:18:40.043Z,13.05
2022-08-14T02:21:48.732Z,13.43
2022-08-14T02:24:52.555Z,11.75
2022-08-14T02:28:22.971Z,12.57
2022-08-14T02:31:28.366Z,11.63
2022-08-14T02:34:36.319Z,11.52
2022-08-14T02:37:47.665Z,12.40
2022-08-14T02:40:52.055Z,12.15
2022-08-14T02:44:00.787Z,12.82
2022-08-14T02:47:07.150Z,12.70
2022-08-14T02:50:18.159Z,13.00
2022-08-14T02:53:21.454Z,12.50
2022-08-14T02:56:29.949Z,12.88
2022-08-14T02:59:51.498Z,12.63
2022-08-14T03:02:58.488Z,13.15
2022-08-14T03:06:03.067Z,13.23
2022-08-14T03:09:06.944Z,12.77
2022-08-14T03:12:12.649Z,17.20
2022-08-14T03:15:22.819Z,12.32
2022-08-14T03:18:31.598Z,13.95
2022-08-14T03:21:39.728Z,12.50
2022-08-14T03:24:44.042Z,13.20
2022-08-14T03:27:48.288Z,14.15
2022-08-14T03:31:04.431Z,13.50
2022-08-14T03:34:24.682Z,14.00
2022-08-14T03:37:52.003Z,12.15
2022-08-14T03:40:59.749Z,13.07
2022-08-14T03:45:25.403Z,13.00
2022-08-14T03:47:46.153Z,14.23
2022-08-14T03:50:52.814Z,14.40
2022-08-14T03:54:04.949Z,13.40
2022-08-14T03:57:08.825Z,14.50
2022-08-14T04:00:40.429Z,13.43
2022-08-14T04:03:39.352Z,15.00
2022-08-14T04:06:47.551Z,14.45
2022-08-14T04:09:52.767Z,14.77
2022-08-14T04:13:03.509Z,15.48
2022-08-14T04:16:12.490Z,17.95
2022-08-14T04:19:19.991Z,14.38
2022-08-14T04:22:23.853Z,15.82
2022-08-14T04:25:27.413Z,15.80
2022-08-14T04:29:06.834Z,15.55
2022-08-14T04:32:58.456Z,17.45
2022-08-14T04:35:19.000Z,21.63
2022-08-14T04:38:47.115Z,15.80
2022-08-14T04:42:11.880Z,16.55
2022-08-14T04:45:17.684Z,17.20
2022-08-14T04:48:31.638Z,19.88
2022-08-14T04:52:04.253Z,16.90
2022-08-14T04:55:19.103Z,16.63
2022-08-14T04:58:32.790Z,17.75
2022-08-14T05:01:40.016Z,16.77
2022-08-14T05:04:45.132Z,25.05
2022-08-14T05:08:01.298Z,16.33
2022-08-14T05:11:07.179Z,14.00
2022-08-14T05:14:45.432Z,13.68
2022-08-14T05:17:58.531Z,14.93
2022-08-14T05:21:59.697Z,14.18
2022-08-14T05:24:33.848Z,14.88
2022-08-14T05:27:37.115Z,17.20
2022-08-14T05:30:43.828Z,13.30
2022-08-14T05:33:56.552Z,15.60
2022-08-14T05:37:02.321Z,14.27
2022-08-14T05:40:10.325Z,14.73
2022-08-14T05:43:16.511Z,13.30
2022-08-14T05:46:22.993Z,15.75
2022-08-14T05:49:33.288Z,13.98
2022-08-14T05:52:39.213Z,13.27
2022-08-14T05:55:44.945Z,14.27
2022-08-14T05:58:48.376Z,15.55
2022-08-14T06:01:51.690Z,15.07
2022-08-14T06:04:55.280Z,14.95
2022-08-14T06:08:02.928Z,14.40
2022-08-14T06:11:14.888Z,15.13
2022-08-14T06:14:31.366Z,12.82
2022-08-14T06:17:47.044Z,14.52
2022-08-14T06:20:59.331Z,12.10
2022-08-14T06:24:02.661Z,13.25
2022-08-14T06:27:09.820Z,15.05
2022-08-14T06:30:16.255Z,15.75
2022-08-14T06:33:20.827Z,14.07
2022-08-14T06:36:26.029Z,14.32
2022-08-14T06:39:36.294Z,14.32
2022-08-14T06:42:43.269Z,15.13
2022-08-14T06:45:53.893Z,16.30
2022-08-14T06:48:57.954Z,15.80
2022-08-14T06:52:01.772Z,17.65
2022-08-14T06:55:05.887Z,17.10
2022-08-14T06:58:28.725Z,14.40
2022-08-14T07:01:51.918Z,14.55
2022-08-14T07:05:22.811Z,15.25
2022-08-14T07:08:31.612Z,14.85
2022-08-14T07:11:35.216Z,15.32
2022-08-14T07:14:40.027Z,13.82
2022-08-14T07:17:52.141Z,15.98
2022-08-14T07:20:56.767Z,13.68
2022-08-14T07:24:00.217Z,13.57
2022-08-14T07:27:04.183Z,13.85
2022-08-14T07:30:34.011Z,17.33
2022-08-14T07:33:37.538Z,12.88
2022-08-14T07:36:53.649Z,13.95
2022-08-14T07:40:06.391Z,14.38
2022-08-14T07:43:14.399Z,13.63
2022-08-14T07:46:21.174Z,11.98
2022-08-14T07:49:30.882Z,12.50
2022-08-14T07:52:34.258Z,13.57
2022-08-14T07:55:37.599Z,15.80
2022-08-14T07:58:51.719Z,16.33
2022-08-14T08:01:58.657Z,13.70
2022-08-14T08:05:02.714Z,14.32
2022-08-14T08:08:08.455Z,17.77
2022-08-14T08:11:36.983Z,20.70
2022-08-14T08:14:56.873Z,15.77
2022-08-14T08:18:10.245Z,16.52
2022-08-14T08:21:33.353Z,12.82
2022-08-14T08:24:38.853Z,13.95
2022-08-14T08:27:44.810Z,14.98
2022-08-14T08:30:51.410Z,12.52
2022-08-14T08:33:58.025Z,12.93
2022-08-14T08:37:07.078Z,13.40
2022-08-14T08:40:11.939Z,14.02
2022-08-14T08:43:25.893Z,16.75
2022-08-14T08:46:29.434Z,16.73
2022-08-14T08:49:53.010Z,16.50
2022-08-14T08:53:05.223Z,26.27
2022-08-14T08:56:08.759Z,17.95
2022-08-14T08:59:21.965Z,15.98
2022-08-14T09:02:25.966Z,13.73
2022-08-14T09:05:33.554Z,15.15
2022-08-14T09:08:37.923Z,14.15
2022-08-14T09:11:41.310Z,12.52
2022-08-14T09:14:44.823Z,11.93
2022-08-14T09:17:48.612Z,12.40
2022-08-14T09:20:58.770Z,13.05
2022-08-14T09:24:29.478Z,11.30
2022-08-14T09:27:26.379Z,14.52
2022-08-14T09:30:32.049Z,11.82
2022-08-14T09:33:56.374Z,12.52
2022-08-14T09:37:18.996Z,10.90
2022-08-14T09:40:37.264Z,12.15
2022-08-14T09:43:53.593Z,13.95
2022-08-14T09:46:58.879Z,12.43
2022-08-14T09:50:02.226Z,16.65
2022-08-14T09:53:17.974Z,15.65
2022-08-14T09:56:30.250Z,19.17
2022-08-14T09:59:42.224Z,18.45
2022-08-14T10:02:54.470Z,16.77
2022-08-14T10:06:07.474Z,14.77
2022-08-14T10:09:16.831Z,16.98
2022-08-14T10:12:29.141Z,14.88
2022-08-14T10:15:34.731Z,16.48
2022-08-14T10:18:39.875Z,17.25
2022-08-14T10:23:11.189Z,18.05
2022-08-14T10:25:15.593Z,17.02
2022-08-14T10:28:51.638Z,19.33
2022-08-14T10:31:45.743Z,20.77
2022-08-14T10:34:52.735Z,18.35
2022-08-14T10:37:56.991Z,20.00
2022-08-14T10:41:13.966Z,19.50
2022-08-14T10:44:21.666Z,17.63
2022-08-14T10:48:07.499Z,15.40
2022-08-14T10:51:00.501Z,18.33
2022-08-14T10:54:16.908Z,18.58
2022-08-14T10:57:35.671Z,14.70
2022-08-14T11:00:43.530Z,19.50
2022-08-14T11:03:56.399Z,21.30
2022-08-14T11:07:00.551Z,17.20
2022-08-14T11:10:09.564Z,18.02
2022-08-14T11:13:23.874Z,18.10
2022-08-14T11:16:29.566Z,19.30
2022-08-14T11:19:33.903Z,20.05
2022-08-14T11:22:56.055Z,17.40
2022-08-14T11:26:02.382Z,15.27
2022-08-14T11:29:12.632Z,15.98
2022-08-14T11:32:20.227Z,15.77
2022-08-14T11:35:26.612Z,16.88
2022-08-14T11:38:48.184Z,16.95
2022-08-14T11:41:55.659Z,14.70
2022-08-14T11:45:11.006Z,17.15
2022-08-14T11:49:04.126Z,15.32
2022-08-14T11:51:42.975Z,14.48
2022-08-14T11:55:00.646Z,17.25
2022-08-14T11:58:06.431Z,12.63
2022-08-14T12:01:11.402Z,16.95
2022-08-14T12:04:21.705Z,16.90
2022-08-14T12:07:36.940Z,13.50
2022-08-14T12:10:58.878Z,14.02
2022-08-14T12:14:13.396Z,14.85
2022-08-14T12:17:47.749Z,15.63
2022-08-14T12:20:54.514Z,16.05
2022-08-14T12:24:06.146Z,16.92
2022-08-14T12:27:13.227Z,15.80
2022-08-14T12:30:29.169Z,15.95
2022-08-14T12:33:47.060Z,17.42
2022-08-14T12:37:06.068Z,15.13
2022-08-14T12:40:15.509Z,16.83
2022-08-14T12:43:21.604Z,18.45
2022-08-14T12:46:28.636Z,19.20
2022-08-14T12:49:34.393Z,17.23
2022-08-14T12:52:53.951Z,17.33
2022-08-14T12:56:22.647Z,20.50
2022-08-14T12:59:37.240Z,14.75
2022-08-14T13:02:47.005Z,18.50
2022-08-14T13:06:00.599Z,17.55
2022-08-14T13:09:07.793Z,17.48
2022-08-14T13:12:34.801Z,16.92
2022-08-14T13:15:40.629Z,19.20
2022-08-14T13:18:46.909Z,19.48
2022-08-14T13:21:58.802Z,17.20
2022-08-14T13:25:10.778Z,17.27
2022-08-14T13:28:30.265Z,17.05
2022-08-14T13:31:39.562Z,18.20
2022-08-14T13:34:46.078Z,16.05
2022-08-14T13:37:53.720Z,18.05
2022-08-14T13:40:57.392Z,15.50
2022-08-14T13:44:01.624Z,14.13
2022-08-14T13:47:07.010Z,14.43
2022-08-14T13:50:15.479Z,18.05
2022-08-14T13:53:26.976Z,14.60
2022-08-14T13:56:40.394Z,16.83
2022-08-14T13:59:46.160Z,14.82
2022-08-14T14:02:53.542Z,18.63
2022-08-14T14:05:58.344Z,19.08
2022-08-14T14:09:04.787Z,13.60
2022-08-14T14:12:36.678Z,18.02
2022-08-14T14:15:33.846Z,20.75
2022-08-14T14:18:56.182Z,20.40
2022-08-14T14:22:00.779Z,16.77
2022-08-14T14:25:09.982Z,20.05
2022-08-14T14:28:16.900Z,18.67
2022-08-14T14:31:31.080Z,17.42
2022-08-14T14:34:37.880Z,19.52
2022-08-14T14:37:42.230Z,18.42
2022-08-14T14:41:00.625Z,15.85
2022-08-14T14:44:06.331Z,14.77
2022-08-14T14:47:15.632Z,13.85
2022-08-14T14:50:22.046Z,16.75
2022-08-14T14:53:31.312Z,25.25
2022-08-14T14:56:51.481Z,21.63
2022-08-14T14:59:55.939Z,12.57
2022-08-14T15:03:00.014Z,13.43
2022-08-14T15:06:03.827Z,12.23
2022-08-14T15:09:10.097Z,11.90
2022-08-14T15:12:55.475Z,13.43
2022-08-14T15:15:47.619Z,10.93
2022-08-14T15:18:54.854Z,12.38
2022-08-14T15:21:59.497Z,10.35
2022-08-14T15:25:02.925Z,9.18
2022-08-14T15:28:11.679Z,9.68
2022-08-14T15:31:16.743Z,10.32
2022-08-14T15:34:43.445Z,10.75
2022-08-14T15:37:44.710Z,9.80
2022-08-14T15:40:56.130Z,12.90
2022-08-14T15:44:01.142Z,9.60
2022-08-14T15:47:09.392Z,10.18
2022-08-14T15:50:13.090Z,9.50
2022-08-14T15:53:16.623Z,9.60
2022-08-14T15:56:42.178Z,11.90
2022-08-14T16:00:03.293Z,9.45
2022-08-14T16:03:16.476Z,10.30
2022-08-14T16:06:21.322Z,9.10
2022-08-14T16:09:26.221Z,9.52
2022-08-14T16:12:41.577Z,11.15
2022-08-14T16:15:53.216Z,15.98
2022-08-14T16:18:59.108Z,11.70
2022-08-14T16:22:57.189Z,11.98
2022-08-14T16:25:34.419Z,15.80
2022-08-14T16:28:39.120Z,14.98
2022-08-14T16:31:45.048Z,15.48
2022-08-14T16:34:54.725Z,18.42
2022-08-14T16:38:19.865Z,15.32
2022-08-14T16:41:28.267Z,15.32
2022-08-14T16:44:40.878Z,14.32
2022-08-14T16:47:47.872Z,12.13
2022-08-14T16:50:54.013Z,12.48
2022-08-14T16:54:00.433Z,19.13
2022-08-14T16:57:22.553Z,12.95
2022-08-14T17:00:32.715Z,14.38
2022-08-14T17:03:53.122Z,13.98
2022-08-14T17:06:58.076Z,14.18
2022-08-14T17:10:09.840Z,12.82
2022-08-14T17:13:19.561Z,11.25
2022-08-14T17:16:24.600Z,10.38
2022-08-14T17:19:40.274Z,13.02
2022-08-14T17:22:50.202Z,11.30
2022-08-14T17:25:53.610Z,11.57
2022-08-14T17:29:06.751Z,11.73
2022-08-14T17:35:57.829Z,12.73
2022-08-14T17:39:06.929Z,16.95
2022-08-14T17:42:13.474Z,11.25
2022-08-14T17:45:18.915Z,13.82
2022-08-14T17:49:14.089Z,13.93
2022-08-14T17:52:50.166Z,18.48
2022-08-14T17:56:48.601Z,19.92
2022-08-14T18:00:12.376Z,19.80
2022-08-14T18:03:50.292Z,15.07
2022-08-14T18:06:58.818Z,15.75
2022-08-14T18:10:52.363Z,12.75
2022-08-14T18:13:51.143Z,17.45
2022-08-14T18:16:57.345Z,18.80
2022-08-14T18:20:01.542Z,17.27
2022-08-14T18:23:25.158Z,18.65
2022-08-14T18:26:37.141Z,12.73
2022-08-14T18:29:54.786Z,14.18
2022-08-14T18:33:14.142Z,10.70
2022-08-14T18:36:47.871Z,12.88
2022-08-14T18:40:03.111Z,8.93
2022-08-14T18:43:09.031Z,11.55
2022-08-14T18:46:59.843Z,8.48
2022-08-14T18:50:00.918Z,11.50
2022-08-14T18:53:10.623Z,11.70
2022-08-14T18:56:18.409Z,11.38
2022-08-14T18:59:35.710Z,9.30
2022-08-14T19:02:43.776Z,9.02
2022-08-14T19:05:59.865Z,16.00
2022-08-14T19:09:04.479Z,9.30
2022-08-14T19:12:08.236Z,9.95
2022-08-14T19:15:25.770Z,10.82
2022-08-14T19:18:38.332Z,10.25
2022-08-14T19:21:44.316Z,12.10
2022-08-14T19:24:50.874Z,12.75
2022-08-14T19:28:31.555Z,15.80
2022-08-14T19:31:42.480Z,12.25
2022-08-14T19:34:59.877Z,15.30
2022-08-14T19:38:03.394Z,10.43
2022-08-14T19:41:16.123Z,12.43
2022-08-14T19:44:20.700Z,16.70
2022-08-14T19:47:41.034Z,8.70
2022-08-14T19:50:46.895Z,9.98
2022-08-14T19:53:56.462Z,10.73
2022-08-14T19:56:59.999Z,10.02
2022-08-14T20:00:28.342Z,11.27
2022-08-14T20:03:59.777Z,12.18
2022-08-14T20:07:09.136Z,11.35
2022-08-14T20:11:05.558Z,15.10
2022-08-14T20:14:01.055Z,9.63
2022-08-14T20:17:06.997Z,16.08
2022-08-14T20:20:31.754Z,13.45
2022-08-14T20:23:38.226Z,12.38
2022-08-14T20:26:46.873Z,12.32
2022-08-14T20:30:29.717Z,15.00
2022-08-14T20:33:47.680Z,13.50
2022-08-14T20:37:01.922Z,12.35
2022-08-14T20:40:24.195Z,13.82
2022-08-14T20:43:47.268Z,14.70
2022-08-14T20:47:01.005Z,16.35
2022-08-14T20:50:16.671Z,19.50
2022-08-14T20:53:34.633Z,16.02
2022-08-14T20:56:44.204Z,12.60
2022-08-14T20:59:57.214Z,17.55
2022-08-14T21:03:32.461Z,13.20
2022-08-14T21:07:22.969Z,13.90
2022-08-14T21:10:35.412Z,17.17
2022-08-14T21:14:20.550Z,15.10
2022-08-14T21:17:04.282Z,16.95
2022-08-14T21:20:25.610Z,16.25
2022-08-14T21:23:32.450Z,15.38
2022-08-14T21:26:51.403Z,17.55
2022-08-14T21:29:59.927Z,19.55
2022-08-14T21:33:05.267Z,18.88
2022-08-14T21:36:21.069Z,19.35
2022-08-14T21:39:27.234Z,16.40
2022-08-14T21:42:31.864Z,20.00
2022-08-14T21:45:39.350Z,19.15
2022-08-14T21:48:44.256Z,20.88
2022-08-14T21:51:59.925Z,21.02
2022-08-14T21:55:12.199Z,20.00
2022-08-14T21:58:53.150Z,18.30
2022-08-14T22:02:00.035Z,22.63
2022-08-14T22:05:05.678Z,20.45
2022-08-14T22:08:14.379Z,20.83
2022-08-14T22:11:19.968Z,22.00
2022-08-14T22:14:25.994Z,20.02
2022-08-14T22:17:32.446Z,19.50
2022-08-14T22:20:37.677Z,17.83
2022-08-14T22:23:42.786Z,17.83
2022-08-14T22:26:46.553Z,17.17
2022-08-14T22:29:54.793Z,17.92
2022-08-14T22:33:01.166Z,20.73
2022-08-14T22:36:26.278Z,17.20
2022-08-14T22:39:40.061Z,20.13
2022-08-14T22:42:57.503Z,22.17
2022-08-14T22:46:14.345Z,16.73
2022-08-14T22:50:31.284Z,19.92
2022-08-14T22:52:49.581Z,22.02
2022-08-14T22:55:54.579Z,21.00
2022-08-14T22:58:59.472Z,20.38
2022-08-14T23:02:06.134Z,18.55
2022-08-14T23:05:15.812Z,18.38
2022-08-14T23:09:00.526Z,18.50
2022-08-14T23:11:46.856Z,21.13
2022-08-14T23:14:50.482Z,20.67
2022-08-14T23:17:55.050Z,19.70
2022-08-14T23:20:59.400Z,19.55
2022-08-14T23:24:03.268Z,19.52
2022-08-14T23:27:09.362Z,18.02
2022-08-14T23:30:34.000Z,18.77
2022-08-14T23:33:42.028Z,19.67
2022-08-14T23:36:57.739Z,21.08
2022-08-14T23:40:02.116Z,18.55
2022-08-14T23:43:09.345Z,18.70
2022-08-14T23:46:15.035Z,20.50
2022-08-14T23:49:20.460Z,20.63
2022-08-14T23:52:51.094Z,22.02
2022-08-14T23:55:54.644Z,21.98
2022-08-14T23:59:03.036Z,18.60
